createdAt,value
2023-03-29T00:00:06.215Z,2.12
2023-03-29T00:01:06.236Z,2.15
2023-03-29T00:02:06.246Z,1.79
2023-03-29T00:03:06.376Z,2.18
2023-03-29T00:04:06.447Z,2.00
2023-03-29T00:05:06.209Z,2.70
2023-03-29T00:06:06.244Z,1.90
2023-03-29T00:07:06.208Z,1.95
2023-03-29T00:08:06.217Z,2.12
2023-03-29T00:09:06.354Z,1.60
2023-03-29T00:10:06.245Z,2.30
2023-03-29T00:11:06.235Z,2.19
2023-03-29T00:12:06.229Z,1.59
2023-03-29T00:13:06.269Z,2.08
2023-03-29T00:14:06.316Z,1.67
2023-03-29T00:15:06.242Z,1.89
2023-03-29T00:16:06.241Z,1.85
2023-03-29T00:18:06.307Z,1.71
2023-03-29T00:19:06.272Z,1.72
2023-03-29T00:20:06.275Z,1.42
2023-03-29T00:21:06.278Z,1.53
2023-03-29T00:22:06.282Z,1.66
2023-03-29T00:23:06.301Z,1.69
2023-03-29T00:24:06.346Z,1.96
2023-03-29T00:25:06.277Z,1.50
2023-03-29T00:27:06.275Z,2.04
2023-03-29T00:28:06.300Z,2.20
2023-03-29T00:29:06.334Z,1.77
2023-03-29T00:30:06.281Z,1.91
2023-03-29T00:31:06.333Z,1.60
2023-03-29T00:32:06.279Z,1.90
2023-03-29T00:33:06.307Z,1.83
2023-03-29T00:34:06.363Z,1.32
2023-03-29T00:35:06.315Z,1.41
2023-03-29T00:36:06.377Z,1.77
2023-03-29T00:38:06.304Z,1.53
2023-03-29T00:39:06.359Z,1.30
2023-03-29T00:40:06.334Z,1.29
2023-03-29T00:41:06.310Z,1.37
2023-03-29T00:42:06.310Z,1.17
2023-03-29T00:43:06.312Z,1.27
2023-03-29T00:44:06.349Z,1.61
2023-03-29T00:45:06.341Z,1.30
2023-03-29T00:46:06.336Z,1.65
2023-03-29T00:47:06.318Z,1.26
2023-03-29T00:48:06.413Z,1.29
2023-03-29T00:49:06.452Z,1.41
2023-03-29T00:50:06.939Z,1.34
2023-03-29T00:51:08.809Z,1.33
2023-03-29T00:52:06.378Z,1.34
2023-03-29T00:53:06.371Z,1.33
2023-03-29T00:54:06.381Z,1.37
2023-03-29T00:55:06.346Z,1.25
2023-03-29T00:57:06.441Z,1.43
2023-03-29T00:58:06.400Z,1.25
2023-03-29T00:59:06.376Z,1.69
2023-03-29T01:00:06.396Z,1.24
2023-03-29T01:01:06.390Z,1.27
2023-03-29T01:02:06.467Z,1.16
2023-03-29T01:04:06.422Z,1.25
2023-03-29T01:05:06.417Z,1.08
2023-03-29T01:06:06.405Z,1.31
2023-03-29T01:07:06.579Z,1.40
2023-03-29T01:08:06.380Z,1.51
2023-03-29T01:09:06.430Z,1.14
2023-03-29T01:10:06.408Z,1.49
2023-03-29T01:11:06.396Z,1.16
2023-03-29T01:12:06.418Z,1.47
2023-03-29T01:13:06.398Z,1.17
2023-03-29T01:14:06.421Z,1.27
2023-03-29T01:15:06.429Z,1.41
2023-03-29T01:16:06.459Z,1.42
2023-03-29T01:17:06.427Z,1.63
2023-03-29T01:18:06.455Z,1.36
2023-03-29T01:19:06.431Z,1.77
2023-03-29T01:20:06.459Z,1.52
2023-03-29T01:21:06.403Z,1.46
2023-03-29T01:22:06.424Z,1.59
2023-03-29T01:23:06.439Z,1.29
2023-03-29T01:24:06.423Z,1.71
2023-03-29T01:25:06.427Z,1.33
2023-03-29T01:26:06.461Z,1.10
2023-03-29T01:27:06.457Z,1.04
2023-03-29T01:28:06.473Z,1.32
2023-03-29T01:29:06.433Z,1.51
2023-03-29T01:30:06.447Z,1.53
2023-03-29T01:31:06.457Z,1.11
2023-03-29T01:32:06.493Z,1.37
2023-03-29T01:34:06.446Z,1.58
2023-03-29T01:35:06.463Z,1.39
2023-03-29T01:36:06.479Z,1.17
2023-03-29T01:38:06.491Z,1.60
2023-03-29T01:39:06.458Z,1.70
2023-03-29T01:40:06.458Z,1.29
2023-03-29T01:41:06.472Z,1.37
2023-03-29T01:42:06.486Z,1.22
2023-03-29T01:43:06.526Z,1.36
2023-03-29T01:44:06.506Z,1.24
2023-03-29T01:45:06.497Z,1.29
2023-03-29T01:46:06.486Z,1.23
2023-03-29T01:47:06.513Z,1.38
2023-03-29T01:48:06.516Z,1.30
2023-03-29T01:49:06.479Z,0.96
2023-03-29T01:50:06.548Z,1.56
2023-03-29T01:51:06.473Z,1.12
2023-03-29T01:52:06.492Z,1.27
2023-03-29T01:53:06.517Z,1.14
2023-03-29T01:55:06.496Z,1.41
2023-03-29T01:56:06.481Z,1.18
2023-03-29T01:57:06.532Z,1.06
2023-03-29T01:58:06.529Z,1.15
2023-03-29T01:59:06.500Z,1.45
2023-03-29T02:00:06.524Z,1.38
2023-03-29T02:01:06.560Z,1.24
2023-03-29T02:02:06.561Z,1.47
2023-03-29T02:03:06.577Z,1.19
2023-03-29T02:04:06.514Z,0.95
2023-03-29T02:05:06.545Z,1.18
2023-03-29T02:06:06.542Z,1.29
2023-03-29T02:07:06.532Z,1.27
2023-03-29T02:08:06.518Z,1.23
2023-03-29T02:09:06.524Z,1.37
2023-03-29T02:10:06.531Z,1.24
2023-03-29T02:11:06.523Z,1.25
2023-03-29T02:12:06.550Z,1.58
2023-03-29T02:13:06.568Z,1.10
2023-03-29T02:14:06.550Z,1.16
2023-03-29T02:15:06.567Z,1.29
2023-03-29T02:16:06.596Z,1.04
2023-03-29T02:17:06.567Z,1.58
2023-03-29T02:18:06.783Z,1.20
2023-03-29T02:19:06.577Z,1.57
2023-03-29T02:20:06.555Z,1.39
2023-03-29T02:21:06.593Z,1.35
2023-03-29T02:22:06.559Z,0.98
2023-03-29T02:23:06.573Z,1.13
2023-03-29T02:24:06.550Z,1.09
2023-03-29T02:25:06.557Z,1.67
2023-03-29T02:26:06.632Z,1.34
2023-03-29T02:27:06.591Z,1.21
2023-03-29T02:28:06.581Z,1.14
2023-03-29T02:29:06.630Z,1.06
2023-03-29T02:30:06.587Z,1.66
2023-03-29T02:33:06.665Z,1.37
2023-03-29T02:35:06.638Z,1.28
2023-03-29T02:36:06.625Z,1.79
2023-03-29T02:37:06.642Z,1.47
2023-03-29T02:38:06.619Z,1.23
2023-03-29T02:39:06.630Z,1.43
2023-03-29T02:40:06.592Z,1.96
2023-03-29T02:41:06.631Z,1.49
2023-03-29T02:42:06.608Z,1.46
2023-03-29T02:44:06.618Z,1.51
2023-03-29T02:45:06.607Z,1.16
2023-03-29T02:47:06.623Z,1.16
2023-03-29T02:51:06.681Z,1.61
2023-03-29T02:52:06.663Z,1.32
2023-03-29T02:53:06.675Z,1.49
2023-03-29T02:54:06.676Z,1.42
2023-03-29T02:56:06.649Z,1.47
2023-03-29T02:57:06.713Z,1.34
2023-03-29T02:58:06.655Z,1.48
2023-03-29T02:59:06.694Z,1.72
2023-03-29T03:00:06.703Z,1.53
2023-03-29T03:01:06.665Z,1.33
2023-03-29T03:02:06.706Z,1.45
2023-03-29T03:03:06.691Z,1.44
2023-03-29T03:04:06.759Z,1.39
2023-03-29T03:05:06.680Z,1.37
2023-03-29T03:07:06.675Z,1.64
2023-03-29T03:08:06.679Z,1.04
2023-03-29T03:11:06.725Z,1.24
2023-03-29T03:12:06.721Z,1.20
2023-03-29T03:13:06.694Z,1.34
2023-03-29T03:14:06.698Z,1.58
2023-03-29T03:16:06.713Z,1.74
2023-03-29T03:17:06.713Z,1.20
2023-03-29T03:18:06.753Z,1.45
2023-03-29T03:19:06.717Z,1.32
2023-03-29T03:20:06.719Z,1.34
2023-03-29T03:21:06.682Z,1.35
2023-03-29T03:22:06.702Z,1.38
2023-03-29T03:23:06.745Z,1.14
2023-03-29T03:24:06.703Z,1.33
2023-03-29T03:25:06.703Z,1.31
2023-03-29T03:27:06.701Z,1.30
2023-03-29T03:28:06.785Z,1.08
2023-03-29T03:29:06.711Z,1.07
2023-03-29T03:30:06.717Z,1.26
2023-03-29T03:31:06.734Z,1.22
2023-03-29T03:32:06.844Z,1.26
2023-03-29T03:33:06.841Z,1.13
2023-03-29T03:34:06.741Z,1.57
2023-03-29T03:35:06.736Z,1.57
2023-03-29T03:36:06.826Z,1.56
2023-03-29T03:37:06.729Z,1.42
2023-03-29T03:38:06.739Z,1.52
2023-03-29T03:39:06.751Z,1.34
2023-03-29T03:40:06.750Z,1.44
2023-03-29T03:41:06.755Z,1.34
2023-03-29T03:42:08.382Z,1.31
2023-03-29T03:43:06.793Z,1.74
2023-03-29T03:45:06.755Z,1.34
2023-03-29T03:46:06.825Z,1.38
2023-03-29T03:50:06.801Z,1.14
2023-03-29T03:53:06.780Z,1.24
2023-03-29T03:54:06.806Z,1.24
2023-03-29T03:55:06.783Z,1.09
2023-03-29T03:56:06.812Z,1.02
2023-03-29T03:57:06.876Z,1.18
2023-03-29T03:58:06.801Z,1.25
2023-03-29T03:59:06.824Z,1.21
2023-03-29T04:00:06.796Z,1.22
2023-03-29T04:01:06.824Z,1.29
2023-03-29T04:02:06.914Z,1.43
2023-03-29T04:03:06.965Z,1.33
2023-03-29T04:04:06.886Z,1.27
2023-03-29T04:05:06.841Z,1.16
2023-03-29T04:06:06.839Z,1.61
2023-03-29T04:07:06.833Z,1.43
2023-03-29T04:08:06.849Z,1.12
2023-03-29T04:09:06.865Z,1.24
2023-03-29T04:10:06.827Z,1.35
2023-03-29T04:11:06.837Z,1.38
2023-03-29T04:13:06.859Z,1.48
2023-03-29T04:14:06.818Z,1.58
2023-03-29T04:15:06.847Z,1.46
2023-03-29T04:16:06.992Z,1.68
2023-03-29T04:17:06.870Z,1.45
2023-03-29T04:18:06.979Z,1.44
2023-03-29T04:19:06.833Z,1.77
2023-03-29T04:20:06.869Z,1.34
2023-03-29T04:21:06.843Z,1.82
2023-03-29T04:22:06.846Z,1.72
2023-03-29T04:23:06.882Z,1.67
2023-03-29T04:24:06.879Z,2.04
2023-03-29T04:25:06.880Z,1.63
2023-03-29T04:27:06.905Z,1.61
2023-03-29T04:28:06.887Z,1.59
2023-03-29T04:29:06.889Z,1.97
2023-03-29T04:30:06.886Z,1.57
2023-03-29T04:31:06.908Z,1.53
2023-03-29T04:32:06.894Z,1.77
2023-03-29T04:33:06.945Z,1.81
2023-03-29T04:34:06.901Z,1.71
2023-03-29T04:35:06.933Z,1.63
2023-03-29T04:36:06.923Z,1.49
2023-03-29T04:37:06.887Z,1.59
2023-03-29T04:38:06.912Z,1.55
2023-03-29T04:39:06.911Z,1.67
2023-03-29T04:40:06.957Z,1.70
2023-03-29T04:42:06.928Z,1.36
2023-03-29T04:43:06.922Z,1.66
2023-03-29T04:44:06.936Z,1.42
2023-03-29T04:45:07.154Z,1.59
2023-03-29T04:46:06.982Z,1.67
2023-03-29T04:47:06.906Z,1.37
2023-03-29T04:48:07.114Z,1.64
2023-03-29T04:49:06.936Z,1.57
2023-03-29T04:50:06.942Z,1.41
2023-03-29T04:51:06.955Z,1.70
2023-03-29T04:52:06.946Z,1.61
2023-03-29T04:53:06.964Z,1.59
2023-03-29T04:54:06.968Z,1.99
2023-03-29T04:55:06.925Z,1.39
2023-03-29T04:56:06.962Z,1.78
2023-03-29T04:57:07.007Z,1.73
2023-03-29T04:58:06.957Z,2.32
2023-03-29T05:00:06.960Z,2.15
2023-03-29T05:01:07.005Z,1.90
2023-03-29T05:04:06.997Z,2.29
2023-03-29T05:05:06.985Z,1.84
2023-03-29T05:06:07.318Z,1.95
2023-03-29T05:07:06.977Z,2.46
2023-03-29T05:08:06.952Z,1.93
2023-03-29T05:09:06.970Z,2.22
2023-03-29T05:11:06.989Z,1.86
2023-03-29T05:12:07.000Z,2.83
2023-03-29T05:13:06.997Z,2.16
2023-03-29T05:14:07.194Z,2.01
2023-03-29T05:15:07.123Z,2.41
2023-03-29T05:16:07.151Z,1.93
2023-03-29T05:17:07.174Z,1.68
2023-03-29T05:18:07.203Z,1.77
2023-03-29T05:19:07.156Z,2.01
2023-03-29T05:21:07.175Z,2.17
2023-03-29T05:22:07.022Z,2.16
2023-03-29T05:23:07.022Z,2.03
2023-03-29T05:24:07.060Z,2.58
2023-03-29T05:25:06.997Z,3.75
2023-03-29T05:26:07.043Z,2.60
2023-03-29T05:27:07.075Z,2.67
2023-03-29T05:28:07.020Z,2.74
2023-03-29T05:29:07.050Z,2.64
2023-03-29T05:30:07.051Z,2.75
2023-03-29T05:31:07.075Z,3.12
2023-03-29T05:32:07.207Z,2.80
2023-03-29T05:33:07.116Z,3.12
2023-03-29T05:38:07.029Z,3.10
2023-03-29T05:39:07.116Z,2.75
2023-03-29T05:40:07.044Z,2.60
2023-03-29T05:41:07.038Z,3.23
2023-03-29T05:42:07.078Z,2.90
2023-03-29T05:43:07.064Z,3.68
2023-03-29T05:44:07.175Z,2.96
2023-03-29T05:46:07.137Z,3.62
2023-03-29T05:48:07.135Z,2.49
2023-03-29T05:51:07.192Z,2.23
2023-03-29T05:52:07.138Z,2.01
2023-03-29T05:53:07.092Z,2.32
2023-03-29T05:54:07.103Z,2.00
2023-03-29T05:55:07.121Z,2.00
2023-03-29T05:56:07.112Z,2.09
2023-03-29T05:57:07.157Z,2.31
2023-03-29T05:58:07.117Z,2.13
2023-03-29T05:59:07.124Z,2.23
2023-03-29T06:00:07.173Z,2.18
2023-03-29T06:01:07.148Z,2.71
2023-03-29T06:03:17.590Z,2.28
2023-03-29T06:04:07.153Z,1.89
2023-03-29T06:05:07.218Z,2.11
2023-03-29T06:06:07.128Z,2.41
2023-03-29T06:07:07.151Z,1.91
2023-03-29T06:08:07.104Z,2.14
2023-03-29T06:09:07.111Z,2.18
2023-03-29T06:10:07.146Z,2.39
2023-03-29T06:11:07.356Z,2.13
2023-03-29T06:13:07.146Z,2.13
2023-03-29T06:14:07.149Z,1.86
2023-03-29T06:15:07.168Z,2.33
2023-03-29T06:18:07.254Z,2.35
2023-03-29T06:19:07.170Z,1.88
2023-03-29T06:20:07.177Z,1.91
2023-03-29T06:21:07.167Z,1.62
2023-03-29T06:22:07.202Z,1.96
2023-03-29T06:23:07.159Z,1.88
2023-03-29T06:24:07.170Z,2.04
2023-03-29T06:25:07.212Z,1.79
2023-03-29T06:26:07.207Z,1.71
2023-03-29T06:27:07.176Z,1.68
2023-03-29T06:28:07.148Z,1.91
2023-03-29T06:29:07.198Z,1.74
2023-03-29T06:30:07.183Z,1.64
2023-03-29T06:31:07.379Z,1.67
2023-03-29T06:32:07.167Z,2.24
2023-03-29T06:33:07.276Z,1.84
2023-03-29T06:34:07.172Z,1.94
2023-03-29T06:35:07.204Z,1.33
2023-03-29T06:36:07.236Z,2.01
2023-03-29T06:37:07.221Z,1.54
2023-03-29T06:38:07.223Z,1.96
2023-03-29T06:39:07.191Z,1.43
2023-03-29T06:40:07.287Z,1.90
2023-03-29T06:41:07.245Z,2.05
2023-03-29T06:42:20.005Z,2.05
2023-03-29T06:43:07.275Z,1.94
2023-03-29T06:44:07.239Z,1.62
2023-03-29T06:45:07.230Z,1.69
2023-03-29T06:46:07.264Z,1.30
2023-03-29T06:47:07.217Z,1.65
2023-03-29T06:48:07.300Z,1.86
2023-03-29T06:49:07.253Z,1.71
2023-03-29T06:50:07.210Z,1.76
2023-03-29T06:51:07.255Z,1.67
2023-03-29T06:52:07.269Z,1.43
2023-03-29T06:54:07.262Z,1.46
2023-03-29T06:55:07.260Z,1.55
2023-03-29T06:56:07.235Z,2.40
2023-03-29T06:57:07.377Z,1.90
2023-03-29T06:58:07.299Z,2.68
2023-03-29T06:59:07.286Z,1.76
2023-03-29T07:00:07.260Z,1.57
2023-03-29T07:01:07.255Z,1.63
2023-03-29T07:02:07.355Z,1.77
2023-03-29T07:03:07.382Z,1.39
2023-03-29T07:04:07.265Z,1.58
2023-03-29T07:05:07.239Z,1.55
2023-03-29T07:06:07.250Z,1.78
2023-03-29T07:07:07.289Z,1.87
2023-03-29T07:08:07.289Z,1.59
2023-03-29T07:09:07.277Z,1.70
2023-03-29T07:10:07.308Z,1.76
2023-03-29T07:11:07.282Z,1.50
2023-03-29T07:12:07.306Z,1.59
2023-03-29T07:13:07.329Z,1.72
2023-03-29T07:14:07.321Z,1.23
2023-03-29T07:15:07.287Z,2.00
2023-03-29T07:16:07.334Z,1.88
2023-03-29T07:17:07.278Z,1.62
2023-03-29T07:18:07.378Z,1.69
2023-03-29T07:19:07.329Z,1.86
2023-03-29T07:20:07.311Z,2.07
2023-03-29T07:21:07.328Z,1.59
2023-03-29T07:22:07.299Z,1.99
2023-03-29T07:23:07.366Z,1.66
2023-03-29T07:24:07.328Z,2.02
2023-03-29T07:25:07.309Z,1.62
2023-03-29T07:26:07.302Z,1.72
2023-03-29T07:27:07.322Z,1.22
2023-03-29T07:28:07.350Z,2.00
2023-03-29T07:29:07.353Z,1.87
2023-03-29T07:30:07.333Z,1.56
2023-03-29T07:31:07.342Z,1.58
2023-03-29T07:32:07.365Z,1.45
2023-03-29T07:33:07.439Z,1.66
2023-03-29T07:34:07.356Z,1.52
2023-03-29T07:35:07.364Z,1.92
2023-03-29T07:36:07.414Z,1.84
2023-03-29T07:37:07.381Z,1.98
2023-03-29T07:38:07.329Z,2.03
2023-03-29T07:39:07.332Z,1.96
2023-03-29T07:40:07.358Z,1.96
2023-03-29T07:41:07.391Z,2.15
2023-03-29T07:42:07.360Z,2.53
2023-03-29T07:43:07.348Z,2.66
2023-03-29T07:44:07.360Z,1.88
2023-03-29T07:47:07.359Z,2.28
2023-03-29T07:48:07.439Z,2.14
2023-03-29T07:49:07.396Z,1.94
2023-03-29T07:50:07.377Z,1.88
2023-03-29T07:51:07.359Z,1.99
2023-03-29T07:52:07.452Z,2.07
2023-03-29T07:53:07.384Z,2.26
2023-03-29T07:55:07.452Z,2.13
2023-03-29T07:56:07.388Z,2.22
2023-03-29T07:57:07.441Z,1.66
2023-03-29T07:58:07.412Z,2.08
2023-03-29T07:59:07.421Z,2.71
2023-03-29T08:00:07.396Z,2.75
2023-03-29T08:01:07.441Z,2.27
2023-03-29T08:02:07.385Z,2.40
2023-03-29T08:03:07.597Z,2.03
2023-03-29T08:04:07.545Z,1.82
2023-03-29T08:05:07.423Z,1.74
2023-03-29T08:06:07.421Z,1.59
2023-03-29T08:07:07.431Z,2.24
2023-03-29T08:08:07.409Z,1.86
2023-03-29T08:09:07.409Z,2.03
2023-03-29T08:10:07.403Z,2.13
2023-03-29T08:11:08.533Z,1.86
2023-03-29T08:12:07.439Z,1.65
2023-03-29T08:13:07.482Z,2.03
2023-03-29T08:14:07.476Z,1.89
2023-03-29T08:15:07.474Z,1.86
2023-03-29T08:16:07.443Z,1.93
2023-03-29T08:17:07.589Z,1.84
2023-03-29T08:18:07.630Z,2.06
2023-03-29T08:19:07.462Z,2.03
2023-03-29T08:20:07.449Z,2.11
2023-03-29T08:21:07.477Z,2.08
2023-03-29T08:23:07.463Z,2.62
2023-03-29T08:24:07.456Z,2.97
2023-03-29T08:26:07.504Z,2.05
2023-03-29T08:27:07.506Z,1.94
2023-03-29T08:28:07.502Z,1.60
2023-03-29T08:29:07.461Z,2.05
2023-03-29T08:30:07.494Z,2.28
2023-03-29T08:31:07.532Z,2.31
2023-03-29T08:32:07.490Z,2.11
2023-03-29T08:33:07.518Z,2.12
2023-03-29T08:34:07.505Z,2.12
2023-03-29T08:35:07.507Z,2.03
2023-03-29T08:36:07.509Z,2.08
2023-03-29T08:37:07.486Z,2.07
2023-03-29T08:38:07.519Z,2.10
2023-03-29T08:39:07.504Z,2.25
2023-03-29T08:40:07.543Z,2.31
2023-03-29T08:41:07.521Z,1.63
2023-03-29T08:42:07.527Z,2.10
2023-03-29T08:43:07.523Z,2.09
2023-03-29T08:44:07.534Z,2.00
2023-03-29T08:45:07.536Z,1.71
2023-03-29T08:46:07.590Z,2.11
2023-03-29T08:47:07.517Z,1.88
2023-03-29T08:48:07.573Z,1.99
2023-03-29T08:49:07.551Z,2.03
2023-03-29T08:50:07.518Z,1.88
2023-03-29T08:51:09.825Z,2.08
2023-03-29T08:52:07.582Z,2.06
2023-03-29T08:53:07.541Z,2.02
2023-03-29T08:54:07.549Z,2.28
2023-03-29T08:55:07.602Z,2.19
2023-03-29T08:56:07.563Z,1.80
2023-03-29T08:57:07.628Z,1.72
2023-03-29T08:59:07.552Z,1.67
2023-03-29T09:00:07.599Z,2.26
2023-03-29T09:01:07.585Z,1.87
2023-03-29T09:02:07.620Z,2.04
2023-03-29T09:03:07.700Z,1.99
2023-03-29T09:04:07.580Z,2.10
2023-03-29T09:05:07.538Z,1.91
2023-03-29T09:06:07.558Z,2.14
2023-03-29T09:07:07.576Z,2.11
2023-03-29T09:08:07.564Z,2.24
2023-03-29T09:09:07.556Z,2.27
2023-03-29T09:10:07.602Z,2.40
2023-03-29T09:11:07.570Z,1.71
2023-03-29T09:12:07.589Z,2.47
2023-03-29T09:13:07.630Z,1.80
2023-03-29T09:14:07.599Z,1.70
2023-03-29T09:15:07.610Z,2.16
2023-03-29T09:16:07.692Z,2.13
2023-03-29T09:17:07.611Z,2.05
2023-03-29T09:18:07.650Z,1.49
2023-03-29T09:19:07.626Z,2.19
2023-03-29T09:20:07.584Z,1.95
2023-03-29T09:21:07.617Z,2.29
2023-03-29T09:22:07.592Z,2.28
2023-03-29T09:23:07.651Z,1.99
2023-03-29T09:24:07.621Z,2.53
2023-03-29T09:25:07.593Z,2.51
2023-03-29T09:26:07.614Z,2.31
2023-03-29T09:27:07.613Z,2.25
2023-03-29T09:28:07.648Z,3.45
2023-03-29T09:29:09.538Z,2.50
2023-03-29T09:30:07.608Z,3.46
2023-03-29T09:31:07.799Z,2.50
2023-03-29T09:32:07.750Z,1.72
2023-03-29T09:33:07.671Z,1.57
2023-03-29T09:34:07.596Z,1.87
2023-03-29T09:35:07.638Z,2.21
2023-03-29T09:36:07.639Z,2.11
2023-03-29T09:37:07.632Z,1.80
2023-03-29T09:38:07.622Z,2.52
2023-03-29T09:39:07.630Z,1.64
2023-03-29T09:41:07.662Z,1.83
2023-03-29T09:42:07.675Z,2.11
2023-03-29T09:43:07.703Z,2.28
2023-03-29T09:44:10.759Z,1.55
2023-03-29T09:45:07.662Z,1.95
2023-03-29T09:46:07.794Z,2.21
2023-03-29T09:47:07.681Z,1.95
2023-03-29T09:48:07.746Z,1.83
2023-03-29T09:49:07.696Z,1.98
2023-03-29T09:50:16.665Z,1.80
2023-03-29T09:51:07.718Z,2.62
2023-03-29T09:52:07.692Z,2.28
2023-03-29T09:53:07.701Z,2.15
2023-03-29T09:54:07.807Z,2.15
2023-03-29T09:56:07.734Z,2.00
2023-03-29T09:57:07.745Z,2.49
2023-03-29T10:00:07.723Z,2.37
2023-03-29T10:01:07.760Z,2.00
2023-03-29T10:02:07.719Z,2.04
2023-03-29T10:03:10.147Z,2.57
2023-03-29T10:04:07.839Z,2.06
2023-03-29T10:05:07.780Z,2.12
2023-03-29T10:06:07.712Z,2.24
2023-03-29T10:07:07.708Z,2.33
2023-03-29T10:08:07.726Z,2.21
2023-03-29T10:09:07.748Z,2.32
2023-03-29T10:10:07.719Z,2.33
2023-03-29T10:11:07.716Z,2.14
2023-03-29T10:12:07.712Z,2.26
2023-03-29T10:13:07.756Z,2.64
2023-03-29T10:14:07.793Z,2.38
2023-03-29T10:15:11.795Z,1.74
2023-03-29T10:16:07.843Z,2.19
2023-03-29T10:17:07.739Z,2.24
2023-03-29T10:18:07.800Z,2.17
2023-03-29T10:19:07.796Z,2.45
2023-03-29T10:20:09.605Z,2.59
2023-03-29T10:21:07.771Z,2.20
2023-03-29T10:22:07.736Z,1.91
2023-03-29T10:23:07.774Z,1.62
2023-03-29T10:24:07.784Z,2.14
2023-03-29T10:25:07.743Z,2.08
2023-03-29T10:26:07.780Z,2.19
2023-03-29T10:27:07.796Z,2.44
2023-03-29T10:28:07.766Z,2.44
2023-03-29T10:29:07.788Z,1.74
2023-03-29T10:30:07.820Z,1.91
2023-03-29T10:31:07.786Z,2.05
2023-03-29T10:32:07.811Z,1.82
2023-03-29T10:33:07.895Z,2.08
2023-03-29T10:34:07.783Z,2.02
2023-03-29T10:35:07.800Z,2.70
2023-03-29T10:36:07.868Z,1.98
2023-03-29T10:37:07.833Z,2.23
2023-03-29T10:38:07.862Z,1.95
2023-03-29T10:39:07.784Z,2.33
2023-03-29T10:40:07.779Z,1.88
2023-03-29T10:41:07.795Z,2.01
2023-03-29T10:43:07.834Z,2.00
2023-03-29T10:44:07.848Z,2.33
2023-03-29T10:45:07.813Z,2.53
2023-03-29T10:46:07.907Z,2.19
2023-03-29T10:47:07.863Z,2.23
2023-03-29T10:48:07.937Z,2.09
2023-03-29T10:49:07.808Z,1.61
2023-03-29T10:50:07.835Z,2.00
2023-03-29T10:51:07.837Z,1.72
2023-03-29T10:52:07.875Z,1.77
2023-03-29T10:53:07.897Z,2.28
2023-03-29T10:54:07.841Z,1.83
2023-03-29T10:55:07.840Z,2.21
2023-03-29T10:56:07.875Z,2.17
2023-03-29T10:57:07.880Z,1.79
2023-03-29T10:58:07.859Z,1.97
2023-03-29T10:59:07.854Z,1.83
2023-03-29T11:00:07.846Z,2.03
2023-03-29T11:01:07.910Z,2.05
2023-03-29T11:02:07.949Z,2.13
2023-03-29T11:03:08.020Z,1.87
2023-03-29T11:04:07.975Z,2.00
2023-03-29T11:05:07.861Z,1.47
2023-03-29T11:06:07.890Z,2.13
2023-03-29T11:07:07.898Z,2.31
2023-03-29T11:08:07.864Z,1.82
2023-03-29T11:09:07.876Z,2.17
2023-03-29T11:10:07.903Z,2.32
2023-03-29T11:11:07.871Z,1.54
2023-03-29T11:12:15.522Z,2.05
2023-03-29T11:13:07.889Z,1.73
2023-03-29T11:14:07.910Z,2.04
2023-03-29T11:15:07.936Z,2.23
2023-03-29T11:16:07.927Z,2.36
2023-03-29T11:17:07.879Z,1.51
2023-03-29T11:18:07.931Z,2.03
2023-03-29T11:19:07.898Z,2.08
2023-03-29T11:20:07.960Z,2.23
2023-03-29T11:21:10.656Z,2.32
2023-03-29T11:22:07.882Z,2.22
2023-03-29T11:23:07.892Z,2.51
2023-03-29T11:24:07.922Z,1.80
2023-03-29T11:25:07.968Z,1.68
2023-03-29T11:26:07.916Z,2.03
2023-03-29T11:27:07.930Z,1.66
2023-03-29T11:28:07.938Z,1.91
2023-03-29T11:29:07.919Z,1.91
2023-03-29T11:30:07.954Z,2.19
2023-03-29T11:31:08.006Z,2.36
2023-03-29T11:32:07.938Z,1.91
2023-03-29T11:33:07.933Z,1.99
2023-03-29T11:34:07.924Z,1.97
2023-03-29T11:35:07.949Z,2.14
2023-03-29T11:36:07.990Z,1.92
2023-03-29T11:37:07.937Z,2.06
2023-03-29T11:38:07.966Z,2.02
2023-03-29T11:39:07.937Z,2.40
2023-03-29T11:40:07.978Z,2.00
2023-03-29T11:41:07.940Z,1.66
2023-03-29T11:42:07.983Z,1.69
2023-03-29T11:43:07.941Z,2.26
2023-03-29T11:44:07.952Z,2.28
2023-03-29T11:45:07.947Z,2.48
2023-03-29T11:46:08.029Z,2.44
2023-03-29T11:47:07.973Z,1.88
2023-03-29T11:48:08.038Z,1.98
2023-03-29T11:49:07.979Z,2.23
2023-03-29T11:50:07.967Z,2.22
2023-03-29T11:51:07.972Z,2.31
2023-03-29T11:52:07.978Z,2.16
2023-03-29T11:53:08.023Z,2.28
2023-03-29T11:54:08.021Z,2.15
2023-03-29T11:55:07.995Z,1.85
2023-03-29T11:57:08.042Z,1.89
2023-03-29T11:58:08.019Z,2.09
2023-03-29T11:59:07.993Z,2.29
2023-03-29T12:00:07.985Z,2.26
2023-03-29T12:01:08.050Z,2.02
2023-03-29T12:02:08.019Z,2.14
2023-03-29T12:03:08.209Z,1.88
2023-03-29T12:04:08.061Z,2.22
2023-03-29T12:05:08.037Z,1.88
2023-03-29T12:06:08.008Z,1.96
2023-03-29T12:07:08.043Z,2.84
2023-03-29T12:08:08.041Z,2.66
2023-03-29T12:09:08.006Z,2.83
2023-03-29T12:10:08.051Z,2.14
2023-03-29T12:11:08.050Z,2.52
2023-03-29T12:12:08.015Z,2.18
2023-03-29T12:13:08.005Z,2.07
2023-03-29T12:14:08.023Z,1.99
2023-03-29T12:15:08.041Z,1.98
2023-03-29T12:16:08.089Z,2.18
2023-03-29T12:17:08.064Z,2.42
2023-03-29T12:18:08.102Z,2.34
2023-03-29T12:19:08.052Z,2.33
2023-03-29T12:20:08.116Z,2.36
2023-03-29T12:21:08.181Z,2.27
2023-03-29T12:22:08.059Z,1.84
2023-03-29T12:23:08.081Z,2.30
2023-03-29T12:24:08.061Z,1.98
2023-03-29T12:25:09.714Z,2.29
2023-03-29T12:26:08.099Z,1.92
2023-03-29T12:27:08.059Z,2.50
2023-03-29T12:28:08.061Z,2.09
2023-03-29T12:29:08.103Z,2.19
2023-03-29T12:30:08.118Z,2.34
2023-03-29T12:31:08.097Z,2.33
2023-03-29T12:32:08.132Z,1.93
2023-03-29T12:33:08.154Z,1.96
2023-03-29T12:34:08.083Z,2.13
2023-03-29T12:35:08.067Z,2.32
2023-03-29T12:36:08.121Z,2.28
2023-03-29T12:37:08.166Z,2.54
2023-03-29T12:38:08.093Z,2.22
2023-03-29T12:39:08.107Z,2.05
2023-03-29T12:40:08.196Z,2.57
2023-03-29T12:41:08.118Z,2.15
2023-03-29T12:42:08.210Z,2.48
2023-03-29T12:43:08.090Z,2.36
2023-03-29T12:44:10.662Z,2.42
2023-03-29T12:45:08.142Z,2.12
2023-03-29T12:46:08.278Z,2.76
2023-03-29T12:47:08.114Z,2.57
2023-03-29T12:48:08.190Z,2.59
2023-03-29T12:49:08.136Z,2.48
2023-03-29T12:50:08.265Z,2.52
2023-03-29T12:51:08.145Z,2.46
2023-03-29T12:52:08.119Z,1.95
2023-03-29T12:53:08.179Z,2.04
2023-03-29T12:54:08.175Z,2.74
2023-03-29T12:55:08.171Z,2.63
2023-03-29T12:56:08.168Z,2.13
2023-03-29T12:57:08.167Z,2.65
2023-03-29T12:58:08.181Z,2.50
2023-03-29T12:59:08.196Z,2.92
2023-03-29T13:00:08.200Z,2.07
2023-03-29T13:01:08.268Z,2.80
2023-03-29T13:02:08.213Z,3.04
2023-03-29T13:03:08.236Z,3.59
2023-03-29T13:04:08.186Z,3.18
2023-03-29T13:05:08.234Z,2.35
2023-03-29T13:06:08.151Z,2.31
2023-03-29T13:07:08.160Z,2.82
2023-03-29T13:08:08.222Z,2.23
2023-03-29T13:09:08.164Z,2.43
2023-03-29T13:10:08.296Z,2.00
2023-03-29T13:11:08.194Z,2.18
2023-03-29T13:12:08.202Z,2.43
2023-03-29T13:13:08.178Z,2.63
2023-03-29T13:14:08.182Z,3.66
2023-03-29T13:15:08.203Z,2.16
2023-03-29T13:16:08.277Z,2.07
2023-03-29T13:17:18.467Z,2.38
2023-03-29T13:18:10.956Z,2.65
2023-03-29T13:19:08.229Z,2.60
2023-03-29T13:20:08.216Z,2.43
2023-03-29T13:21:08.261Z,1.93
2023-03-29T13:22:08.247Z,2.67
2023-03-29T13:23:08.225Z,3.14
2023-03-29T13:24:08.239Z,2.60
2023-03-29T13:25:08.220Z,2.57
2023-03-29T13:26:08.208Z,2.48
2023-03-29T13:27:08.304Z,2.51
2023-03-29T13:28:08.212Z,2.17
2023-03-29T13:29:08.266Z,2.65
2023-03-29T13:30:08.258Z,2.46
2023-03-29T13:31:08.320Z,2.76
2023-03-29T13:32:08.228Z,2.99
2023-03-29T13:33:08.338Z,3.00
2023-03-29T13:34:08.303Z,2.95
2023-03-29T13:35:08.240Z,2.30
2023-03-29T13:36:08.385Z,2.35
2023-03-29T13:38:08.296Z,3.05
2023-03-29T13:39:08.327Z,2.77
2023-03-29T13:40:08.285Z,3.14
2023-03-29T13:41:08.246Z,2.34
2023-03-29T13:42:08.249Z,2.80
2023-03-29T13:43:08.255Z,2.43
2023-03-29T13:44:08.776Z,2.73
2023-03-29T13:45:08.268Z,2.43
2023-03-29T13:46:08.360Z,2.37
2023-03-29T13:47:08.289Z,2.44
2023-03-29T13:48:08.341Z,2.62
2023-03-29T13:49:08.357Z,3.19
2023-03-29T13:50:08.335Z,2.73
2023-03-29T13:51:08.375Z,2.73
2023-03-29T13:52:08.337Z,2.98
2023-03-29T13:53:08.300Z,2.93
2023-03-29T13:54:08.354Z,2.72
2023-03-29T13:55:08.291Z,2.56
2023-03-29T13:56:08.320Z,2.42
2023-03-29T13:57:08.409Z,3.10
2023-03-29T13:58:08.297Z,2.92
2023-03-29T14:00:08.314Z,2.30
2023-03-29T14:01:08.358Z,2.64
2023-03-29T14:02:08.418Z,2.90
2023-03-29T14:03:08.357Z,2.56
2023-03-29T14:04:08.343Z,4.52
2023-03-29T14:05:08.350Z,2.84
2023-03-29T14:06:08.317Z,1.99
2023-03-29T14:07:08.363Z,1.86
2023-03-29T14:08:08.352Z,2.72
2023-03-29T14:10:08.357Z,2.70
2023-03-29T14:11:08.381Z,2.41
2023-03-29T14:12:08.382Z,2.05
2023-03-29T14:13:08.357Z,2.40
2023-03-29T14:14:08.437Z,2.90
2023-03-29T14:15:08.343Z,2.72
2023-03-29T14:16:08.409Z,1.87
2023-03-29T14:17:08.336Z,2.74
2023-03-29T14:18:08.430Z,2.39
2023-03-29T14:19:08.338Z,2.88
2023-03-29T14:20:08.381Z,3.07
2023-03-29T14:21:08.362Z,3.23
2023-03-29T14:22:08.377Z,3.23